createdAt,value
2023-02-15T00:01:18.210Z,101709.38
2023-02-15T00:03:45.834Z,101716.63
2023-02-15T00:06:13.458Z,101715.78
2023-02-15T00:08:41.152Z,101723.03
2023-02-15T00:11:09.115Z,101729.25
2023-02-15T00:13:37.189Z,101728.41
2023-02-15T00:16:04.992Z,101714.97
2023-02-15T00:18:34.071Z,101728.41
2023-02-15T00:21:04.897Z,101726.72
2023-02-15T00:23:32.560Z,101715.94
2023-02-15T00:26:07.205Z,101726.72
2023-02-15T00:28:34.950Z,101732.09
2023-02-15T00:31:06.610Z,101727.59
2023-02-15T00:33:35.709Z,101713.25
2023-02-15T00:36:03.532Z,101725.72
2023-02-15T00:38:31.326Z,101725.72
2023-02-15T00:41:00.299Z,101713.09
2023-02-15T00:43:28.033Z,101713.94
2023-02-15T00:45:55.739Z,101713.94
2023-02-15T00:48:23.438Z,101719.31
2023-02-15T00:50:52.869Z,101712.25
2023-02-15T00:53:20.592Z,101704.19
2023-02-15T00:55:48.224Z,101706.03
2023-02-15T00:58:16.225Z,101698.97
2023-02-15T01:00:44.700Z,101699.78
2023-02-15T01:03:12.387Z,101698.13
2023-02-15T01:05:40.079Z,101698.13
2023-02-15T01:08:09.070Z,101700.97
2023-02-15T01:10:36.820Z,101706.19
2023-02-15T01:13:04.583Z,101709.91
2023-02-15T01:15:32.299Z,101701.84
2023-02-15T01:17:59.981Z,101697.44
2023-02-15T01:20:28.153Z,101695.59
2023-02-15T01:22:55.817Z,101694.75
2023-02-15T01:25:25.069Z,101685.84
2023-02-15T01:27:52.709Z,101694.94
2023-02-15T01:30:20.393Z,101689.56
2023-02-15T01:32:48.025Z,101685.00
2023-02-15T01:35:15.750Z,101677.97
2023-02-15T01:37:43.433Z,101681.47
2023-02-15T01:40:13.732Z,101684.00
2023-02-15T01:42:42.857Z,101687.50
2023-02-15T01:45:16.941Z,101674.06
2023-02-15T01:47:45.037Z,101686.53
2023-02-15T01:50:14.350Z,101680.31
2023-02-15T01:52:42.639Z,101687.34
2023-02-15T01:55:10.291Z,101681.13
2023-02-15T01:57:37.931Z,101687.34
2023-02-15T02:00:07.893Z,101684.81
2023-02-15T02:02:35.639Z,101676.75
2023-02-15T02:05:07.356Z,101678.59
2023-02-15T02:07:35.633Z,101680.47
2023-02-15T02:10:03.384Z,101680.47
2023-02-15T02:12:31.028Z,101677.75
2023-02-15T02:14:58.617Z,101676.94
2023-02-15T02:17:29.402Z,101676.94
2023-02-15T02:20:11.262Z,101673.56
2023-02-15T02:22:59.855Z,101679.78
2023-02-15T02:25:42.345Z,101680.66
2023-02-15T02:28:12.964Z,101676.25
2023-02-15T02:30:58.525Z,101673.56
2023-02-15T02:33:35.912Z,101673.56
2023-02-15T02:36:07.080Z,101678.94
2023-02-15T02:38:36.084Z,101679.97
2023-02-15T02:41:07.025Z,101684.31
2023-02-15T02:43:35.920Z,101678.09
2023-02-15T02:46:05.111Z,101682.66
2023-02-15T02:48:33.047Z,101675.56
2023-02-15T02:51:02.200Z,101678.09
2023-02-15T02:53:48.353Z,101672.72
2023-02-15T02:56:17.963Z,101675.25
2023-02-15T02:58:47.001Z,101673.41
2023-02-15T03:01:15.864Z,101680.66
2023-02-15T03:03:44.071Z,101679.78
2023-02-15T03:06:13.388Z,101675.41
2023-02-15T03:08:42.588Z,101674.41
2023-02-15T03:11:10.964Z,101678.09
2023-02-15T03:13:38.705Z,101676.44
2023-02-15T03:16:23.975Z,101679.13
2023-02-15T03:18:58.909Z,101680.97
2023-02-15T03:21:30.026Z,101670.19
2023-02-15T03:23:59.295Z,101675.56
2023-02-15T03:26:26.961Z,101675.56
2023-02-15T03:28:55.033Z,101669.34
2023-02-15T03:31:22.904Z,101679.28
2023-02-15T03:33:52.258Z,101677.63
2023-02-15T03:36:20.870Z,101679.28
2023-02-15T03:38:51.513Z,101679.28
2023-02-15T03:41:19.307Z,101674.94
2023-02-15T03:43:47.886Z,101678.47
2023-02-15T03:46:18.557Z,101674.94
2023-02-15T03:48:47.873Z,101677.63
2023-02-15T03:51:34.283Z,101675.75
2023-02-15T03:54:03.363Z,101672.22
2023-02-15T03:56:31.140Z,101673.06
2023-02-15T03:59:15.859Z,101673.06
2023-02-15T04:01:59.284Z,101669.34
2023-02-15T04:04:27.880Z,101669.34
2023-02-15T04:06:55.505Z,101669.34
2023-02-15T04:09:42.070Z,101665.66
2023-02-15T04:12:09.844Z,101681.81
2023-02-15T04:14:54.625Z,101676.44
2023-02-15T04:17:22.308Z,101680.97
2023-02-15T04:20:07.269Z,101680.97
2023-02-15T04:22:52.335Z,101678.47
2023-02-15T04:25:21.350Z,101677.63
2023-02-15T04:27:50.152Z,101688.38
2023-02-15T04:30:18.164Z,101683.00
2023-02-15T04:32:45.834Z,101691.06
2023-02-15T04:35:13.462Z,101687.72
2023-02-15T04:37:41.098Z,101687.53
2023-02-15T04:40:09.094Z,101679.63
2023-02-15T04:42:38.172Z,101688.53
2023-02-15T04:45:06.094Z,101692.06
2023-02-15T04:47:33.767Z,101685.00
2023-02-15T04:50:01.666Z,101686.00
2023-02-15T04:52:29.405Z,101691.22
2023-02-15T04:54:57.019Z,101690.41
2023-02-15T04:57:24.653Z,101690.41
2023-02-15T04:59:53.652Z,101685.84
2023-02-15T05:02:21.492Z,101688.53
2023-02-15T05:04:49.248Z,101686.00
2023-02-15T05:07:16.863Z,101685.00
2023-02-15T05:09:44.524Z,101690.41
2023-02-15T05:12:12.244Z,101686.69
2023-02-15T05:14:40.014Z,101691.06
2023-02-15T05:17:09.057Z,101698.28
2023-02-15T05:19:36.709Z,101693.78
2023-02-15T05:22:04.328Z,101709.06
2023-02-15T05:24:49.455Z,101708.06
2023-02-15T05:27:34.259Z,101707.22
2023-02-15T05:30:02.074Z,101700.16
2023-02-15T05:32:31.253Z,101703.84
2023-02-15T05:34:59.061Z,101703.03
2023-02-15T05:37:26.745Z,101711.94
2023-02-15T05:39:54.413Z,101706.56
2023-02-15T05:42:22.126Z,101713.94
2023-02-15T05:44:49.791Z,101720.16
2023-02-15T05:47:17.519Z,101713.94
2023-02-15T05:49:46.517Z,101724.72
2023-02-15T05:52:14.221Z,101723.03
2023-02-15T05:54:41.929Z,101726.38
2023-02-15T05:57:09.560Z,101718.50
2023-02-15T05:59:37.262Z,101720.34
2023-02-15T06:02:05.008Z,101727.25
2023-02-15T06:04:32.738Z,101728.09
2023-02-15T06:07:01.845Z,101722.69
2023-02-15T06:09:29.553Z,101726.06
2023-02-15T06:11:57.217Z,101729.41
2023-02-15T06:14:24.821Z,101733.81
2023-02-15T06:16:52.487Z,101726.56
2023-02-15T06:19:20.091Z,101726.41
2023-02-15T06:21:47.704Z,101732.44
2023-02-15T06:24:16.696Z,101730.44
2023-02-15T06:26:44.328Z,101725.88
2023-02-15T06:29:12.003Z,101727.59
2023-02-15T06:31:39.685Z,101728.41
2023-02-15T06:34:07.401Z,101725.53
2023-02-15T06:36:35.104Z,101729.09
2023-02-15T06:39:03.255Z,101730.75
2023-02-15T06:41:32.367Z,101734.28
2023-02-15T06:44:00.482Z,101734.13
2023-02-15T06:46:28.157Z,101727.91
2023-02-15T06:48:55.901Z,101726.06
2023-02-15T06:51:23.529Z,101738.50
2023-02-15T06:53:51.181Z,101729.44
2023-02-15T06:56:18.914Z,101738.34
2023-02-15T06:58:50.252Z,101735.47
2023-02-15T07:01:18.024Z,101738.16
2023-02-15T07:03:45.658Z,101734.47
2023-02-15T07:06:13.301Z,101734.28
2023-02-15T07:08:41.086Z,101724.34
2023-02-15T07:11:26.178Z,101728.75
2023-02-15T07:13:55.343Z,101728.56
2023-02-15T07:16:23.087Z,101731.25
2023-02-15T07:18:50.845Z,101733.09
2023-02-15T07:21:18.634Z,101731.78
2023-02-15T07:23:46.344Z,101729.75
2023-02-15T07:26:14.186Z,101737.50
2023-02-15T07:28:41.824Z,101732.75
2023-02-15T07:31:11.186Z,101733.44
2023-02-15T07:33:38.862Z,101738.47
2023-02-15T07:36:07.332Z,101737.47
2023-02-15T07:38:35.328Z,101739.16
2023-02-15T07:41:03.498Z,101735.47
2023-02-15T07:43:31.336Z,101732.56
2023-02-15T07:46:01.132Z,101733.44
2023-02-15T07:48:31.025Z,101728.72
2023-02-15T07:51:00.474Z,101732.25
2023-02-15T07:53:28.594Z,101731.09
2023-02-15T07:55:56.995Z,101731.09
2023-02-15T07:58:47.350Z,101722.00
2023-02-15T08:01:14.998Z,101726.22
2023-02-15T08:03:44.687Z,101726.03
2023-02-15T08:06:14.219Z,101733.09
2023-02-15T08:08:42.564Z,101732.09
2023-02-15T08:11:30.093Z,101734.63
2023-02-15T08:14:02.033Z,101731.72
2023-02-15T08:16:30.672Z,101730.75
2023-02-15T08:19:01.103Z,101739.47
2023-02-15T08:21:29.199Z,101731.91
2023-02-15T08:23:57.603Z,101738.81
2023-02-15T08:26:25.318Z,101733.41
2023-02-15T08:28:53.828Z,101733.06
2023-02-15T08:31:21.671Z,101733.72
2023-02-15T08:33:50.363Z,101725.66
2023-02-15T08:36:19.837Z,101726.28
2023-02-15T08:38:47.622Z,101727.81
2023-02-15T08:41:18.224Z,101726.63
2023-02-15T08:43:45.913Z,101738.06
2023-02-15T08:46:14.351Z,101732.53
2023-02-15T08:48:45.628Z,101723.56
2023-02-15T08:51:14.394Z,101728.63
2023-02-15T08:53:43.760Z,101733.66
2023-02-15T08:56:12.395Z,101731.66
2023-02-15T08:58:40.136Z,101735.00
2023-02-15T09:01:12.189Z,101738.34
2023-02-15T09:03:39.952Z,101733.81
2023-02-15T09:06:08.467Z,101729.25
2023-02-15T09:08:36.265Z,101731.78
2023-02-15T09:11:09.576Z,101728.25
2023-02-15T09:13:37.212Z,101730.75
2023-02-15T09:16:05.900Z,101735.16
2023-02-15T09:18:36.355Z,101735.63
2023-02-15T09:21:08.688Z,101728.22
2023-02-15T09:23:36.417Z,101728.22
2023-02-15T09:26:04.863Z,101728.22
2023-02-15T09:28:35.486Z,101737.31
2023-02-15T09:31:09.616Z,101734.78
2023-02-15T09:33:38.107Z,101730.44
2023-02-15T09:36:06.004Z,101734.97
2023-02-15T09:38:34.512Z,101728.72
2023-02-15T09:41:06.497Z,101728.56
2023-02-15T09:43:37.846Z,101735.47
2023-02-15T09:46:20.361Z,101725.69
2023-02-15T09:48:49.594Z,101721.16
2023-02-15T09:51:27.011Z,101715.75
2023-02-15T09:53:59.231Z,101707.81
2023-02-15T09:56:28.954Z,101714.88
2023-02-15T09:59:00.923Z,101710.00
2023-02-15T10:01:31.492Z,101697.16
2023-02-15T10:04:07.353Z,101704.25
2023-02-15T10:06:43.166Z,101691.59
2023-02-15T10:09:32.772Z,101699.34
2023-02-15T10:12:10.008Z,101696.47
2023-02-15T10:14:46.349Z,101705.22
2023-02-15T10:17:18.307Z,101690.72
2023-02-15T10:19:48.330Z,101689.53
2023-02-15T10:22:19.440Z,101686.66
2023-02-15T10:24:51.360Z,101684.63
2023-02-15T10:27:20.939Z,101679.09
2023-02-15T10:29:52.200Z,101675.19
2023-02-15T10:32:24.400Z,101678.56
2023-02-15T10:34:53.898Z,101667.75
2023-02-15T10:37:34.453Z,101664.88
2023-02-15T10:40:04.705Z,101662.84
2023-02-15T10:42:33.143Z,101660.81
2023-02-15T10:45:14.341Z,101666.00
2023-02-15T10:47:45.462Z,101647.13
2023-02-15T10:50:35.670Z,101640.72
2023-02-15T10:53:08.534Z,101642.22
2023-02-15T10:55:40.856Z,101627.25
2023-02-15T10:58:11.486Z,101636.84
2023-02-15T11:00:42.946Z,101637.31
2023-02-15T11:03:17.773Z,101635.25
2023-02-15T11:05:50.884Z,101630.53
2023-02-15T11:08:18.584Z,101624.09
2023-02-15T11:10:47.261Z,101624.94
2023-02-15T11:13:16.545Z,101622.91
2023-02-15T11:15:46.527Z,101628.13
2023-02-15T11:18:19.309Z,101623.38
2023-02-15T11:20:47.772Z,101615.94
2023-02-15T11:23:17.243Z,101616.78
2023-02-15T11:25:47.376Z,101612.88
2023-02-15T11:28:17.417Z,101610.19
2023-02-15T11:30:48.602Z,101608.97
2023-02-15T11:33:19.363Z,101598.19
2023-02-15T11:35:50.294Z,101602.38
2023-02-15T11:38:18.874Z,101596.81
2023-02-15T11:40:48.837Z,101594.09
2023-02-15T11:43:19.057Z,101596.59
2023-02-15T11:45:48.257Z,101587.31
2023-02-15T11:48:16.813Z,101585.44
2023-02-15T11:50:45.693Z,101575.50
2023-02-15T11:53:15.354Z,101573.63
2023-02-15T11:55:43.532Z,101571.78
2023-02-15T11:58:12.897Z,101565.34
2023-02-15T12:00:41.555Z,101559.75
2023-02-15T12:03:17.221Z,101554.38
2023-02-15T12:05:45.361Z,101563.13
2023-02-15T12:08:16.115Z,101560.44
2023-02-15T12:10:45.063Z,101553.16
2023-02-15T12:13:17.397Z,101554.66
2023-02-15T12:15:47.573Z,101551.94
2023-02-15T12:18:21.800Z,101546.56
2023-02-15T12:20:49.476Z,101546.56
2023-02-15T12:23:17.451Z,101548.22
2023-02-15T12:25:46.832Z,101549.91
2023-02-15T12:28:23.741Z,101543.69
2023-02-15T12:30:52.368Z,101538.91
2023-02-15T12:33:23.650Z,101538.75
2023-02-15T12:35:54.335Z,101536.03
2023-02-15T12:38:23.706Z,101532.31
2023-02-15T12:40:59.080Z,101535.84
2023-02-15T12:43:27.357Z,101520.28
2023-02-15T12:45:55.810Z,101516.75
2023-02-15T12:48:27.219Z,101516.75
2023-02-15T12:50:57.247Z,101514.91
2023-02-15T12:53:31.649Z,101513.88
2023-02-15T12:56:01.065Z,101512.03
2023-02-15T12:58:28.813Z,101505.59
2023-02-15T13:01:07.781Z,101500.19
2023-02-15T13:03:36.829Z,101497.47
2023-02-15T13:06:09.484Z,101496.47
2023-02-15T13:08:38.012Z,101498.13
2023-02-15T13:11:06.783Z,101492.75
2023-02-15T13:13:35.452Z,101487.16
2023-02-15T13:16:04.696Z,101487.16
2023-02-15T13:18:33.442Z,101497.09
2023-02-15T13:21:10.765Z,101489.00
2023-02-15T13:23:38.415Z,101486.97
2023-02-15T13:26:06.508Z,101492.38
2023-02-15T13:28:38.930Z,101483.44
2023-02-15T13:31:06.750Z,101481.56
2023-02-15T13:33:34.730Z,101483.25
2023-02-15T13:36:08.976Z,101483.91
2023-02-15T13:38:54.626Z,101486.44
2023-02-15T13:41:22.707Z,101490.63
2023-02-15T13:43:52.813Z,101480.47
2023-02-15T13:46:23.219Z,101484.84
2023-02-15T13:48:54.300Z,101482.16
2023-02-15T13:51:26.436Z,101483.63
2023-02-15T13:54:07.068Z,101475.53
2023-02-15T13:56:37.723Z,101478.88
2023-02-15T13:59:11.084Z,101478.06
2023-02-15T14:01:40.433Z,101468.91
2023-02-15T14:04:23.009Z,101473.47
2023-02-15T14:07:18.128Z,101473.47
2023-02-15T14:09:49.080Z,101473.47
2023-02-15T14:12:22.617Z,101468.91
2023-02-15T14:14:54.611Z,101463.50
2023-02-15T14:17:24.326Z,101460.81
2023-02-15T14:19:53.427Z,101463.50
2023-02-15T14:22:23.500Z,101457.28
2023-02-15T14:24:55.504Z,101465.19
2023-02-15T14:27:24.660Z,101465.19
2023-02-15T14:29:53.669Z,101470.56
2023-02-15T14:32:23.312Z,101468.09
2023-02-15T14:34:51.744Z,101465.38
2023-02-15T14:37:21.652Z,101456.78
2023-02-15T14:40:07.756Z,101472.81
2023-02-15T14:42:39.287Z,101465.56
2023-02-15T14:45:07.792Z,101463.91
2023-02-15T14:47:36.732Z,101465.56
2023-02-15T14:50:19.759Z,101467.44
2023-02-15T14:53:02.859Z,101470.31
2023-02-15T14:55:36.856Z,101468.63
2023-02-15T14:58:12.192Z,101462.59
2023-02-15T15:00:40.303Z,101466.31
2023-02-15T15:03:20.144Z,101453.81
2023-02-15T15:05:51.459Z,101464.84
2023-02-15T15:08:23.986Z,101466.69
2023-02-15T15:10:51.648Z,101462.31
2023-02-15T15:13:39.288Z,101463.31
2023-02-15T15:16:25.524Z,101467.06
2023-02-15T15:18:54.793Z,101467.41
2023-02-15T15:21:53.235Z,101465.75
2023-02-15T15:24:36.277Z,101462.38
2023-02-15T15:27:25.772Z,101468.81
2023-02-15T15:29:53.474Z,101460.06
2023-02-15T15:32:21.575Z,101453.16
2023-02-15T15:35:02.755Z,101456.03
2023-02-15T15:37:44.500Z,101454.59
2023-02-15T15:40:27.470Z,101449.38
2023-02-15T15:43:10.136Z,101457.63
2023-02-15T15:45:53.126Z,101456.81
2023-02-15T15:48:36.301Z,101457.00
2023-02-15T15:51:06.454Z,101451.78
2023-02-15T15:53:35.386Z,101454.66
2023-02-15T15:56:04.483Z,101452.16
2023-02-15T15:58:32.691Z,101454.03
2023-02-15T16:01:02.099Z,101447.97
2023-02-15T16:03:30.133Z,101446.31
2023-02-15T16:06:02.285Z,101443.78
2023-02-15T16:08:33.306Z,101452.91
2023-02-15T16:11:01.576Z,101448.72
2023-02-15T16:13:29.328Z,101450.56
2023-02-15T16:15:57.352Z,101454.47
2023-02-15T16:18:26.268Z,101453.66
2023-02-15T16:20:54.924Z,101457.56
2023-02-15T16:23:34.653Z,101451.31
2023-02-15T16:26:04.362Z,101455.88
2023-02-15T16:28:32.286Z,101466.84
2023-02-15T16:31:07.307Z,101463.53
2023-02-15T16:33:38.713Z,101465.56
2023-02-15T16:36:09.524Z,101465.56
2023-02-15T16:38:55.152Z,101456.81
2023-02-15T16:41:23.893Z,101457.84
2023-02-15T16:43:51.799Z,101453.47
2023-02-15T16:46:29.595Z,101453.47
2023-02-15T16:48:59.927Z,101463.41
2023-02-15T16:51:28.689Z,101459.88
2023-02-15T16:53:58.752Z,101460.06
2023-02-15T16:56:26.485Z,101456.53
2023-02-15T16:58:55.060Z,101461.91
2023-02-15T17:01:24.164Z,101460.25
2023-02-15T17:03:52.924Z,101456.69
2023-02-15T17:06:21.553Z,101463.97
2023-02-15T17:08:49.900Z,101465.00
2023-02-15T17:11:19.466Z,101463.31
2023-02-15T17:14:06.543Z,101467.03
2023-02-15T17:16:34.624Z,101459.13
2023-02-15T17:19:03.118Z,101459.31
2023-02-15T17:21:32.852Z,101459.31
2023-02-15T17:24:01.926Z,101465.75
2023-02-15T17:26:31.273Z,101465.91
2023-02-15T17:29:01.080Z,101462.38
2023-02-15T17:31:29.874Z,101465.25
2023-02-15T17:34:00.677Z,101464.41
2023-02-15T17:36:30.358Z,101456.31
2023-02-15T17:39:02.864Z,101467.13
2023-02-15T17:41:32.307Z,101461.06
2023-02-15T17:44:01.505Z,101458.38
2023-02-15T17:46:29.279Z,101459.41
2023-02-15T17:48:58.428Z,101455.00
2023-02-15T17:51:26.825Z,101450.63
2023-02-15T17:54:12.502Z,101446.28
2023-02-15T17:56:41.598Z,101446.28
2023-02-15T17:59:11.969Z,101448.13
2023-02-15T18:01:57.546Z,101448.13
2023-02-15T18:04:43.154Z,101439.19
2023-02-15T18:07:27.883Z,101440.03
2023-02-15T18:10:13.425Z,101441.88
2023-02-15T18:12:42.614Z,101441.88
2023-02-15T18:15:12.933Z,101438.38
2023-02-15T18:17:41.283Z,101441.88
2023-02-15T18:20:12.550Z,101445.63
2023-02-15T18:22:40.288Z,101438.53
2023-02-15T18:25:11.049Z,101435.66
2023-02-15T18:27:38.849Z,101440.22
2023-02-15T18:30:09.568Z,101438.53
2023-02-15T18:32:37.566Z,101431.44
2023-02-15T18:35:06.429Z,101441.41
2023-02-15T18:37:34.142Z,101438.88
2023-02-15T18:40:03.705Z,101445.31
2023-02-15T18:42:33.177Z,101444.25
2023-02-15T18:45:01.360Z,101440.75
2023-02-15T18:47:31.259Z,101442.59
2023-02-15T18:49:59.617Z,101439.91
2023-02-15T18:52:27.591Z,101436.53
2023-02-15T18:54:57.056Z,101441.94
2023-02-15T18:57:24.696Z,101440.06
2023-02-15T18:59:53.550Z,101442.16
2023-02-15T19:02:21.247Z,101447.53
2023-02-15T19:04:51.009Z,101444.63
2023-02-15T19:07:19.544Z,101440.28
2023-02-15T19:09:48.182Z,101442.97
2023-02-15T19:12:16.550Z,101441.09
2023-02-15T19:14:44.278Z,101445.47
2023-02-15T19:17:14.892Z,101447.16
2023-02-15T19:19:43.309Z,101440.94
2023-02-15T19:22:14.390Z,101439.25
2023-02-15T19:24:44.634Z,101449.03
2023-02-15T19:27:14.325Z,101443.63
2023-02-15T19:29:42.725Z,101438.25
2023-02-15T19:32:11.033Z,101437.22
2023-02-15T19:34:38.891Z,101439.06
2023-02-15T19:37:08.722Z,101430.16
2023-02-15T19:39:38.901Z,101431.81
2023-02-15T19:42:07.299Z,101426.41
2023-02-15T19:44:35.050Z,101426.41
2023-02-15T19:47:03.440Z,101421.03
2023-02-15T19:49:32.427Z,101424.75
2023-02-15T19:52:00.141Z,101425.59
2023-02-15T19:54:31.682Z,101423.72
2023-02-15T19:57:00.943Z,101427.44
2023-02-15T19:59:29.579Z,101424.75
2023-02-15T20:01:57.365Z,101421.03
2023-02-15T20:04:26.818Z,101417.50
2023-02-15T20:06:55.472Z,101420.38
2023-02-15T20:09:24.869Z,101414.97
2023-02-15T20:11:52.762Z,101417.66
2023-02-15T20:14:22.556Z,101417.66
2023-02-15T20:16:50.292Z,101419.53
2023-02-15T20:19:18.684Z,101419.38
2023-02-15T20:21:46.800Z,101416.66
2023-02-15T20:24:16.726Z,101419.38
2023-02-15T20:26:44.522Z,101412.28
2023-02-15T20:29:14.156Z,101413.97
2023-02-15T20:31:43.470Z,101414.97
2023-02-15T20:34:11.981Z,101414.97
2023-02-15T20:36:39.727Z,101417.66
2023-02-15T20:39:13.190Z,101406.06
2023-02-15T20:41:46.956Z,101416.84
2023-02-15T20:44:22.923Z,101415.81
2023-02-15T20:46:52.455Z,101413.97
2023-02-15T20:49:21.776Z,101412.28
2023-02-15T20:51:50.310Z,101409.56
2023-02-15T20:54:19.205Z,101414.97
2023-02-15T20:56:46.952Z,101406.88
2023-02-15T20:59:22.717Z,101408.56
2023-02-15T21:01:50.480Z,101402.31
2023-02-15T21:04:20.202Z,101398.78
2023-02-15T21:06:48.567Z,101398.13
2023-02-15T21:09:16.536Z,101389.88
2023-02-15T21:11:45.552Z,101387.34
2023-02-15T21:14:22.345Z,101380.28
2023-02-15T21:16:50.953Z,101381.94
2023-02-15T21:19:20.492Z,101374.91
2023-02-15T21:21:49.344Z,101380.28
2023-02-15T21:24:17.383Z,101379.25
2023-02-15T21:26:46.196Z,101373.84
2023-02-15T21:29:17.385Z,101366.81
2023-02-15T21:31:47.892Z,101373.84
2023-02-15T21:34:15.675Z,101375.72
2023-02-15T21:36:46.693Z,101369.50
2023-02-15T21:39:15.925Z,101365.97
2023-02-15T21:42:01.569Z,101364.09
2023-02-15T21:44:46.478Z,101360.75
2023-02-15T21:47:36.525Z,101370.53
2023-02-15T21:50:24.917Z,101366.16
2023-02-15T21:52:53.830Z,101377.75
2023-02-15T21:55:21.506Z,101368.66
2023-02-15T21:57:49.928Z,101368.66
2023-02-15T22:00:18.316Z,101368.66
2023-02-15T22:02:46.615Z,101371.53
2023-02-15T22:05:14.819Z,101371.53
2023-02-15T22:07:43.156Z,101371.75
2023-02-15T22:10:12.277Z,101373.56
2023-02-15T22:12:40.754Z,101368.19
2023-02-15T22:15:08.750Z,101364.03
2023-02-15T22:17:37.137Z,101366.91
2023-02-15T22:20:07.026Z,101361.50
2023-02-15T22:22:35.421Z,101363.38
2023-02-15T22:25:03.132Z,101359.84
2023-02-15T22:27:32.914Z,101361.88
2023-02-15T22:30:00.664Z,101359.19
2023-02-15T22:32:29.225Z,101361.03
2023-02-15T22:34:56.983Z,101356.66
2023-02-15T22:37:24.725Z,101370.13
2023-02-15T22:39:52.910Z,101366.59
2023-02-15T22:42:24.602Z,101355.16
2023-02-15T22:44:54.306Z,101357.84
2023-02-15T22:47:22.732Z,101356.00
2023-02-15T22:49:51.273Z,101357.84
2023-02-15T22:52:19.006Z,101360.56
2023-02-15T22:54:47.445Z,101360.56
2023-02-15T22:57:16.275Z,101353.50
2023-02-15T22:59:44.292Z,101348.09
2023-02-15T23:02:13.506Z,101347.28
2023-02-15T23:04:41.595Z,101346.41
2023-02-15T23:07:11.718Z,101348.09
2023-02-15T23:09:39.783Z,101348.28
2023-02-15T23:12:08.148Z,101341.22
2023-02-15T23:14:36.143Z,101340.19
2023-02-15T23:17:03.890Z,101332.31
2023-02-15T23:19:33.021Z,101336.00
2023-02-15T23:22:00.768Z,101327.28
2023-02-15T23:24:28.882Z,101330.81
2023-02-15T23:27:16.700Z,101335.38
2023-02-15T23:29:44.379Z,101336.38
2023-02-15T23:32:12.714Z,101342.81
2023-02-15T23:34:41.890Z,101341.09
2023-02-15T23:37:11.449Z,101346.50
2023-02-15T23:39:56.601Z,101346.50
2023-02-15T23:42:25.005Z,101345.66
2023-02-15T23:44:52.728Z,101340.28
2023-02-15T23:47:21.114Z,101335.09
2023-02-15T23:49:50.342Z,101329.69
2023-02-15T23:52:17.984Z,101335.25
2023-02-15T23:54:45.954Z,101334.44
2023-02-15T23:57:13.670Z,101327.16
2023-02-15T23:59:41.326Z,101329.88
